Aérodrome :
LOGIN :

S'inscrire | Disclaimer

   EN    FR    IT 

 










Légende :    VFR   VFR Marginal   IFR   IFR Intensif   IFR Très Intensif
Visi : 
Plafond : 
>= 8 km
>= 3000ft
5 à 8 km
1000 à 3000 ft
1500m à 5 km
500 à 1000 ft
800 à 1500m
200 à 500 ft
< 800m
< 200 ft
Symboles :   Orages  Brouillard  Fortes neiges  Fortes précipitations  Vent > 20 kt
SIGMETs :   Divers  Orages  Givrage  Turbulence  Onde Orograph.  Cendres Volcan.






- Altitude de l'aérodrome : 256 ft
- Code IATA : KUN


EYKA - Kaunas

DERNIER METAR :
  • 282350Z AUTO 08003KT 010V100 9999 OVC100/// 17/12 Q1016

METARs EXPIRÉS :
  • 282320Z AUTO 08004KT 020V090 9999 OVC100/// 16/12 Q1016
  • 282250Z AUTO VRB02KT 9999 BKN110/// OVC140/// 17/12 Q1016
  • 282220Z AUTO 10003KT 010V180 9999 OVC140/// 17/12 Q1016
  • 282150Z AUTO 10003KT 070V140 9999 OVC140/// 19/12 Q1016
  • 282120Z 13004KT CAVOK 19/12 Q1016
  • 282050Z 13005KT CAVOK 20/13 Q1016
  • 282020Z 12005KT CAVOK 20/12 Q1017
  • 281950Z 12004KT CAVOK 19/14 Q1017
  • 281920Z 10004KT 070V130 CAVOK 20/14 Q1017

TAF TAF EYKA
Valide du 29 à 00h jusqu'au 30 à 00h UTC


282300Z 2900/2924 VRB05KT 9000 NSC
TEMPO 2908/2912 BKN040CB
TEMPO 2912/2919 VRB15G25KT 5000 TSRA BKN030CB



MET'MAP, la Météo Aéronautique d'un coup d'oeil ! - Copyright ORBIFLY Décembre 2007 - Disclaimer

ORBIFLY MET'MAP TEAM :

Programmation & Développement : Alexandra Zaïnal
Sur une idée originale de : Baudouin d'Aumeries
Soutien technique & logistique : Manuel Goepfert
Assistance : Marc-Olivier Méhu




SOURCES & CREDITS :

   NOAA